createdAt,value
2018-03-22T00:02:01.543Z,102391.73
2018-03-22T00:04:28.695Z,102389.63
2018-03-22T00:06:56.016Z,102388.78
2018-03-22T00:09:23.056Z,102389.45
2018-03-22T00:11:49.551Z,102379.60
2018-03-22T00:14:16.254Z,102377.65
2018-03-22T00:16:42.868Z,102366.34
2018-03-22T00:19:09.504Z,102359.64
2018-03-22T00:21:36.757Z,102363.23
2018-03-22T00:24:03.184Z,102365.19
2018-03-22T00:26:29.608Z,102358.09
2018-03-22T00:28:57.274Z,102353.78
2018-03-22T00:31:24.452Z,102364.80
2018-03-22T00:33:51.332Z,102363.09
2018-03-22T00:36:19.031Z,102341.77
2018-03-22T00:38:45.428Z,102336.40
2018-03-22T00:41:12.814Z,102327.25
2018-03-22T00:43:39.232Z,102332.03
2018-03-22T00:46:05.640Z,102329.25
2018-03-22T00:48:32.960Z,102312.95
2018-03-22T00:50:59.368Z,102321.93
2018-03-22T00:53:26.013Z,102321.22
2018-03-22T00:55:52.678Z,102319.27
2018-03-22T00:58:19.075Z,102311.64
2018-03-22T01:00:46.063Z,102309.14
2018-03-22T01:03:12.605Z,102300.33
2018-03-22T01:05:39.018Z,102310.31
2018-03-22T01:08:05.472Z,102307.16
2018-03-22T01:10:32.621Z,102298.84
2018-03-22T01:12:59.013Z,102295.06
2018-03-22T01:15:26.160Z,102290.20
2018-03-22T01:17:53.526Z,102287.87
2018-03-22T01:20:20.685Z,102283.17
2018-03-22T01:22:47.094Z,102273.65
2018-03-22T01:25:14.452Z,102276.25
2018-03-22T01:27:40.862Z,102266.95
2018-03-22T01:30:26.744Z,102264.07
2018-03-22T01:32:53.189Z,102252.22
2018-03-22T01:35:19.610Z,102248.94
2018-03-22T01:37:46.175Z,102255.88
2018-03-22T01:40:13.444Z,102245.41
2018-03-22T01:42:40.497Z,102235.16
2018-03-22T01:45:06.909Z,102224.20
2018-03-22T01:47:33.779Z,102213.08
2018-03-22T01:50:00.185Z,102205.38
2018-03-22T01:52:26.783Z,102199.78
2018-03-22T01:54:54.837Z,102201.50
2018-03-22T01:57:21.241Z,102206.08
2018-03-22T01:59:48.714Z,102202.98
2018-03-22T02:02:15.582Z,102200.88
2018-03-22T02:04:41.988Z,102192.52
2018-03-22T02:07:08.441Z,102200.44
2018-03-22T02:09:35.598Z,102199.67
2018-03-22T02:12:02.012Z,102183.73
2018-03-22T02:14:28.399Z,102179.13
2018-03-22T02:16:55.053Z,102175.70
2018-03-22T02:19:21.906Z,102158.22
2018-03-22T02:21:49.528Z,102154.99
2018-03-22T02:24:16.718Z,102143.44
2018-03-22T02:26:43.121Z,102127.09
2018-03-22T02:29:09.545Z,102116.98
2018-03-22T02:31:36.074Z,102118.80
2018-03-22T02:34:03.240Z,102108.06
2018-03-22T02:36:30.283Z,102110.06
2018-03-22T02:38:56.817Z,102125.95
2018-03-22T02:41:23.218Z,102132.92
2018-03-22T02:43:49.629Z,102144.50
2018-03-22T02:46:17.061Z,102146.48
2018-03-22T02:48:44.176Z,102127.61
2018-03-22T02:51:10.581Z,102114.48
2018-03-22T02:53:37.238Z,102103.27
2018-03-22T02:56:03.672Z,102103.38
2018-03-22T02:58:31.041Z,102106.91
2018-03-22T03:00:58.145Z,102092.86
2018-03-22T03:03:24.545Z,102087.49
2018-03-22T03:05:51.406Z,102076.48
2018-03-22T03:08:18.557Z,102075.21
2018-03-22T03:10:44.948Z,102069.70
2018-03-22T03:13:12.030Z,102068.17
2018-03-22T03:15:39.105Z,102061.06
2018-03-22T03:18:06.957Z,102044.80
2018-03-22T03:20:33.492Z,102047.95
2018-03-22T03:22:59.891Z,102035.78
2018-03-22T03:25:26.288Z,102045.02
2018-03-22T03:27:53.925Z,102053.18
2018-03-22T03:30:20.830Z,102041.66
2018-03-22T03:32:48.336Z,102044.21
2018-03-22T03:35:14.763Z,102034.23
2018-03-22T03:37:41.193Z,102037.84
2018-03-22T03:40:07.888Z,102030.33
2018-03-22T03:42:34.276Z,102017.60
2018-03-22T03:45:01.323Z,102021.86
2018-03-22T03:47:27.831Z,102015.55
2018-03-22T03:49:54.972Z,102013.84
2018-03-22T03:52:21.374Z,102009.97
2018-03-22T03:54:48.142Z,102009.53
2018-03-22T03:57:15.128Z,102017.60
2018-03-22T03:59:41.540Z,102021.48
2018-03-22T04:02:08.173Z,102022.10
2018-03-22T04:04:34.580Z,102016.80
2018-03-22T04:07:01.188Z,102015.95
2018-03-22T04:09:29.227Z,102013.14
2018-03-22T04:11:56.305Z,102017.74
2018-03-22T04:14:24.065Z,102014.84
2018-03-22T04:16:50.680Z,102011.22
2018-03-22T04:19:17.402Z,102008.83
2018-03-22T04:21:44.379Z,102002.73
2018-03-22T04:24:10.796Z,101997.65
2018-03-22T04:26:37.908Z,102000.30
2018-03-22T04:29:05.888Z,101997.44
2018-03-22T04:31:33.775Z,101978.25
2018-03-22T04:34:00.191Z,101982.61
2018-03-22T04:36:27.021Z,101958.56
2018-03-22T04:38:53.438Z,101953.47
2018-03-22T04:41:19.840Z,101956.22
2018-03-22T04:43:46.994Z,101957.63
2018-03-22T04:46:13.390Z,101947.86
2018-03-22T04:48:39.795Z,101952.43
2018-03-22T04:51:06.349Z,101947.70
2018-03-22T04:53:33.673Z,101949.92
2018-03-22T04:56:00.863Z,101936.81
2018-03-22T04:58:27.407Z,101929.23
2018-03-22T05:00:53.947Z,101938.64
2018-03-22T05:03:20.373Z,101939.42
2018-03-22T05:05:47.024Z,101929.62
2018-03-22T05:08:14.063Z,101929.47
2018-03-22T05:10:40.478Z,101924.20
2018-03-22T05:13:07.639Z,101925.82
2018-03-22T05:15:34.038Z,101929.32
2018-03-22T05:18:01.190Z,101924.23
2018-03-22T05:20:28.938Z,101924.41
2018-03-22T05:22:55.960Z,101914.92
2018-03-22T05:25:22.387Z,101917.09
2018-03-22T05:27:48.981Z,101915.91
2018-03-22T05:30:15.381Z,101911.61
2018-03-22T05:32:42.258Z,101910.03
2018-03-22T05:35:08.801Z,101895.66
2018-03-22T05:37:35.549Z,101901.94
2018-03-22T05:40:02.007Z,101901.59
2018-03-22T05:42:29.353Z,101899.14
2018-03-22T05:44:57.016Z,101898.27
2018-03-22T05:47:24.055Z,101892.02
2018-03-22T05:49:50.452Z,101890.38
2018-03-22T05:52:17.045Z,101891.73
2018-03-22T05:54:43.438Z,101879.80
2018-03-22T05:57:10.355Z,101883.16
2018-03-22T05:59:37.886Z,101881.34
2018-03-22T06:02:04.510Z,101868.66
2018-03-22T06:04:31.114Z,101874.72
2018-03-22T06:06:58.739Z,101875.30
2018-03-22T06:09:25.401Z,101881.58
2018-03-22T06:11:51.803Z,101884.70
2018-03-22T06:14:18.668Z,101873.96
2018-03-22T06:16:45.304Z,101872.30
2018-03-22T06:19:11.748Z,101873.39
2018-03-22T06:21:38.505Z,101871.89
2018-03-22T06:24:05.681Z,101862.20
2018-03-22T06:26:32.502Z,101855.59
2018-03-22T06:28:59.055Z,101850.59
2018-03-22T06:31:26.052Z,101835.09
2018-03-22T06:33:52.442Z,101832.61
2018-03-22T06:36:18.984Z,101833.20
2018-03-22T06:38:45.397Z,101832.30
2018-03-22T06:41:12.529Z,101836.77
2018-03-22T06:43:39.058Z,101830.54
2018-03-22T06:46:05.635Z,101826.04
2018-03-22T06:48:32.066Z,101824.70
2018-03-22T06:50:59.300Z,101814.17
2018-03-22T06:53:25.694Z,101812.00
2018-03-22T06:55:52.847Z,101816.63
2018-03-22T06:58:19.288Z,101811.17
2018-03-22T07:00:46.380Z,101817.22
2018-03-22T07:03:14.012Z,101799.14
2018-03-22T07:05:40.444Z,101807.13
2018-03-22T07:08:06.876Z,101801.59
2018-03-22T07:10:33.379Z,101800.01
2018-03-22T07:13:00.446Z,101801.16
2018-03-22T07:15:26.987Z,101796.47
2018-03-22T07:17:53.607Z,101790.18
2018-03-22T07:20:20.177Z,101801.38
2018-03-22T07:22:47.740Z,101794.84
2018-03-22T07:25:14.156Z,101792.45
2018-03-22T07:27:41.466Z,101794.77
2018-03-22T07:30:08.072Z,101803.41
2018-03-22T07:32:35.787Z,101806.36
2018-03-22T07:35:02.837Z,101799.82
2018-03-22T07:37:29.259Z,101802.64
2018-03-22T07:39:56.869Z,101810.01
2018-03-22T07:42:23.825Z,101801.61
2018-03-22T07:44:50.732Z,101814.39
2018-03-22T07:47:17.708Z,101804.62
2018-03-22T07:49:45.510Z,101797.44
2018-03-22T07:52:12.053Z,101798.36
2018-03-22T07:54:38.915Z,101798.45
2018-03-22T07:57:05.331Z,101791.98
2018-03-22T07:59:32.477Z,101790.19
2018-03-22T08:01:59.680Z,101787.89
2018-03-22T08:04:26.488Z,101782.19
2018-03-22T08:06:52.928Z,101784.85
2018-03-22T08:09:19.347Z,101790.59
2018-03-22T08:11:46.165Z,101793.14
2018-03-22T08:14:12.570Z,101792.23
2018-03-22T08:16:39.627Z,101787.84
2018-03-22T08:19:06.285Z,101788.09
2018-03-22T08:21:33.447Z,101786.35
2018-03-22T08:23:59.870Z,101786.69
2018-03-22T08:26:26.828Z,101785.29
2018-03-22T08:28:54.321Z,101786.37
2018-03-22T08:31:22.538Z,101779.78
2018-03-22T08:33:48.937Z,101786.53
2018-03-22T08:36:15.836Z,101782.52
2018-03-22T08:38:42.763Z,101778.39
2018-03-22T08:41:09.828Z,101771.06
2018-03-22T08:43:37.661Z,101769.45
2018-03-22T08:46:05.868Z,101764.53
2018-03-22T08:48:32.272Z,101766.63
2018-03-22T08:50:59.133Z,101764.30
2018-03-22T08:53:26.770Z,101767.33
2018-03-22T08:55:53.745Z,101767.31
2018-03-22T08:58:22.002Z,101769.99
2018-03-22T09:00:49.608Z,101766.52
2018-03-22T09:03:16.038Z,101765.94
2018-03-22T09:05:43.754Z,101765.69
2018-03-22T09:08:10.761Z,101761.81
2018-03-22T09:10:38.390Z,101761.23
2018-03-22T09:13:05.491Z,101755.43
2018-03-22T09:15:32.065Z,101762.83
2018-03-22T09:17:59.861Z,101761.94
2018-03-22T09:20:26.884Z,101761.98
2018-03-22T09:22:53.287Z,101759.00
2018-03-22T09:25:20.615Z,101750.59
2018-03-22T09:27:48.084Z,101754.39
2018-03-22T09:30:16.289Z,101760.47
2018-03-22T09:32:42.710Z,101753.05
2018-03-22T09:35:09.639Z,101760.31
2018-03-22T09:37:36.576Z,101760.58
2018-03-22T09:40:03.401Z,101756.78
2018-03-22T09:42:30.984Z,101757.67
2018-03-22T09:44:57.438Z,101759.29
2018-03-22T09:47:24.315Z,101759.87
2018-03-22T09:49:51.949Z,101751.36
2018-03-22T09:52:19.041Z,101745.49
2018-03-22T09:54:46.136Z,101745.37
2018-03-22T09:57:13.122Z,101741.87
2018-03-22T09:59:40.867Z,101739.30
2018-03-22T10:02:07.873Z,101753.70
2018-03-22T10:04:34.272Z,101748.59
2018-03-22T10:07:01.913Z,101755.07
2018-03-22T10:09:28.323Z,101751.92
2018-03-22T10:11:55.420Z,101751.63
2018-03-22T10:14:21.841Z,101761.59
2018-03-22T10:16:48.717Z,101758.11
2018-03-22T10:19:19.859Z,101754.75
2018-03-22T10:21:46.749Z,101753.83
2018-03-22T10:24:13.593Z,101746.55
2018-03-22T10:33:01.270Z,101749.25
2018-03-22T10:35:28.168Z,101741.11
2018-03-22T10:37:55.738Z,101740.41
2018-03-22T10:40:23.325Z,101741.66
2018-03-22T10:42:50.006Z,101745.47
2018-03-22T10:45:17.958Z,101746.39
2018-03-22T10:47:44.767Z,101742.66
2018-03-22T10:50:11.936Z,101736.72
2018-03-22T10:52:39.041Z,101739.75
2018-03-22T10:55:06.150Z,101733.83
2018-03-22T10:57:33.483Z,101735.45
2018-03-22T11:00:01.855Z,101734.05
2018-03-22T11:02:35.410Z,101735.20
2018-03-22T11:05:01.981Z,101726.33
2018-03-22T11:07:28.378Z,101721.53
2018-03-22T11:09:55.052Z,101719.61
2018-03-22T11:12:22.274Z,101715.55
2018-03-22T11:14:48.712Z,101719.35
2018-03-22T11:17:15.140Z,101719.72
2018-03-22T11:19:42.043Z,101713.09
2018-03-22T11:22:09.168Z,101713.88
2018-03-22T11:24:35.595Z,101708.22
2018-03-22T11:27:02.185Z,101701.52
2018-03-22T11:29:29.144Z,101701.98
2018-03-22T11:34:30.358Z,101691.91
2018-03-22T11:36:56.923Z,101692.14
2018-03-22T11:39:24.573Z,101691.31
2018-03-22T11:41:51.452Z,101687.62
2018-03-22T11:44:18.074Z,101683.39
2018-03-22T11:46:45.302Z,101679.72
2018-03-22T11:49:12.024Z,101676.59
2018-03-22T11:51:38.641Z,101675.39
2018-03-22T11:54:05.109Z,101680.15
2018-03-22T11:56:32.667Z,101685.42
2018-03-22T11:58:59.100Z,101686.22
2018-03-22T12:01:25.532Z,101683.21
2018-03-22T12:03:52.174Z,101680.52
2018-03-22T12:06:19.314Z,101684.64
2018-03-22T12:08:45.714Z,101675.03
2018-03-22T12:11:12.713Z,101676.12
2018-03-22T12:13:39.160Z,101683.40
2018-03-22T12:16:06.209Z,101675.44
2018-03-22T12:18:33.306Z,101676.16
2018-03-22T12:20:59.693Z,101673.28
2018-03-22T12:23:26.112Z,101671.95
2018-03-22T12:25:52.781Z,101673.61
2018-03-22T12:28:19.884Z,101679.47
2018-03-22T12:30:46.885Z,101669.69
2018-03-22T12:33:13.519Z,101674.86
2018-03-22T12:35:39.945Z,101671.67
2018-03-22T12:38:07.140Z,101660.14
2018-03-22T12:40:34.955Z,101641.25
2018-03-22T12:43:01.792Z,101649.83
2018-03-22T12:45:28.944Z,101647.80
2018-03-22T12:47:55.776Z,101638.16
2018-03-22T12:50:23.416Z,101636.94
2018-03-22T12:52:50.347Z,101634.17
2018-03-22T12:55:18.136Z,101637.14
2018-03-22T12:57:44.559Z,101646.64
2018-03-22T13:00:11.414Z,101638.19
2018-03-22T13:02:37.843Z,101640.36
2018-03-22T13:05:05.319Z,101642.77
2018-03-22T13:07:32.879Z,101637.08
2018-03-22T13:09:59.732Z,101637.02
2018-03-22T13:12:26.206Z,101635.61
2018-03-22T13:14:53.044Z,101631.47
2018-03-22T13:17:20.773Z,101635.70
2018-03-22T13:19:48.558Z,101628.41
2018-03-22T13:22:16.248Z,101622.26
2018-03-22T13:24:44.119Z,101622.50
2018-03-22T13:27:12.405Z,101614.75
2018-03-22T13:29:40.848Z,101617.00
2018-03-22T13:32:07.520Z,101612.03
2018-03-22T13:34:34.673Z,101610.56
2018-03-22T13:37:03.031Z,101616.16
2018-03-22T13:39:30.191Z,101615.47
2018-03-22T13:41:57.144Z,101613.84
2018-03-22T13:44:24.199Z,101624.16
2018-03-22T13:46:51.929Z,101621.09
2018-03-22T13:49:19.511Z,101614.64
2018-03-22T13:51:46.968Z,101617.97
2018-03-22T13:54:13.951Z,101615.82
2018-03-22T13:56:40.566Z,101616.52
2018-03-22T13:59:07.433Z,101611.45
2018-03-22T14:01:35.203Z,101612.05
2018-03-22T14:04:02.104Z,101609.39
2018-03-22T14:06:28.990Z,101611.38
2018-03-22T14:08:56.355Z,101605.74
2018-03-22T14:11:22.783Z,101600.29
2018-03-22T14:13:49.768Z,101600.77
2018-03-22T14:16:17.515Z,101603.00
2018-03-22T14:18:45.072Z,101605.01
2018-03-22T14:21:11.605Z,101594.33
2018-03-22T14:23:38.262Z,101589.42
2018-03-22T14:26:04.696Z,101588.02
2018-03-22T14:28:31.339Z,101592.71
2018-03-22T14:30:58.837Z,101594.02
2018-03-22T14:33:27.050Z,101589.66
2018-03-22T14:35:53.448Z,101586.77
2018-03-22T14:38:20.379Z,101598.41
2018-03-22T14:40:46.788Z,101590.41
2018-03-22T14:43:14.417Z,101588.59
2018-03-22T14:45:42.884Z,101586.53
2018-03-22T14:48:10.509Z,101582.01
2018-03-22T14:50:37.077Z,101580.05
2018-03-22T14:53:04.184Z,101584.20
2018-03-22T14:55:31.093Z,101582.13
2018-03-22T14:57:58.777Z,101581.17
2018-03-22T15:00:26.756Z,101574.76
2018-03-22T15:02:54.225Z,101572.39
2018-03-22T15:05:20.779Z,101572.31
2018-03-22T15:07:47.976Z,101573.14
2018-03-22T15:10:14.401Z,101574.56
2018-03-22T15:12:41.031Z,101575.56
2018-03-22T15:15:07.597Z,101580.28
2018-03-22T15:17:34.008Z,101582.02
2018-03-22T15:20:00.441Z,101575.34
2018-03-22T15:22:27.937Z,101575.86
2018-03-22T15:24:54.337Z,101571.43
2018-03-22T15:27:20.772Z,101568.83
2018-03-22T15:29:48.232Z,101567.82
2018-03-22T15:32:15.842Z,101561.97
2018-03-22T15:34:42.845Z,101567.83
2018-03-22T15:37:09.697Z,101563.59
2018-03-22T15:39:36.137Z,101565.84
2018-03-22T15:42:03.872Z,101558.77
2018-03-22T15:44:32.232Z,101549.78
2018-03-22T15:46:58.677Z,101554.52
2018-03-22T15:49:26.040Z,101559.30
2018-03-22T15:51:52.992Z,101549.60
2018-03-22T15:54:20.040Z,101558.10
2018-03-22T15:56:47.077Z,101558.03
2018-03-22T15:59:14.066Z,101557.58
2018-03-22T16:01:41.328Z,101555.80
2018-03-22T16:04:08.896Z,101557.68
2018-03-22T16:06:36.734Z,101554.40
2018-03-22T16:09:03.238Z,101562.83
2018-03-22T16:11:29.818Z,101562.55
2018-03-22T16:13:57.144Z,101560.98
2018-03-22T16:16:23.553Z,101561.19
2018-03-22T16:18:49.985Z,101563.77
2018-03-22T16:21:17.496Z,101560.00
2018-03-22T16:23:45.031Z,101562.22
2018-03-22T16:26:11.453Z,101561.22
2018-03-22T16:28:37.865Z,101562.23
2018-03-22T16:31:05.372Z,101565.95
2018-03-22T16:33:31.808Z,101555.92
2018-03-22T16:35:58.248Z,101556.69
2018-03-22T16:38:25.557Z,101555.80
2018-03-22T16:40:52.028Z,101559.64
2018-03-22T16:43:19.240Z,101560.80
2018-03-22T16:45:45.786Z,101556.41
2018-03-22T16:48:12.209Z,101560.01
2018-03-22T16:50:38.683Z,101563.03
2018-03-22T16:53:06.544Z,101562.52
2018-03-22T16:55:33.044Z,101560.18
2018-03-22T16:57:59.503Z,101556.78
2018-03-22T17:00:26.582Z,101562.23
2018-03-22T17:02:54.183Z,101563.61
2018-03-22T17:05:20.673Z,101562.50
2018-03-22T17:07:47.137Z,101554.95
2018-03-22T17:10:14.560Z,101550.87
2018-03-22T17:12:40.984Z,101555.94
2018-03-22T17:15:07.432Z,101554.94
2018-03-22T17:17:34.979Z,101554.94
2018-03-22T17:20:02.078Z,101548.21
2018-03-22T17:22:29.121Z,101553.77
2018-03-22T17:24:56.281Z,101546.66
2018-03-22T17:27:22.757Z,101552.41
2018-03-22T17:29:49.857Z,101557.39
2018-03-22T17:32:17.192Z,101555.48
2018-03-22T17:34:43.702Z,101556.09
2018-03-22T17:37:11.547Z,101557.92
2018-03-22T17:39:38.513Z,101558.11
2018-03-22T17:42:06.165Z,101559.94
2018-03-22T17:44:34.155Z,101551.31
2018-03-22T17:47:02.603Z,101549.02
2018-03-22T17:49:29.092Z,101551.15
2018-03-22T17:51:56.265Z,101552.37
2018-03-22T17:54:22.861Z,101559.29
2018-03-22T17:56:49.859Z,101566.89
2018-03-22T17:59:17.454Z,101554.09
2018-03-22T18:01:44.304Z,101558.59
2018-03-22T18:04:11.279Z,101561.08
2018-03-22T18:06:38.259Z,101561.77
2018-03-22T18:09:06.736Z,101552.90
2018-03-22T18:11:34.586Z,101549.58
2018-03-22T18:14:02.382Z,101549.48
2018-03-22T18:16:30.733Z,101549.42
2018-03-22T18:18:57.627Z,101539.89
2018-03-22T18:21:24.078Z,101541.00
2018-03-22T18:23:51.093Z,101539.50
2018-03-22T18:26:20.569Z,101541.79
2018-03-22T18:28:47.769Z,101543.98
2018-03-22T18:31:15.915Z,101550.28
2018-03-22T18:33:42.562Z,101553.58
2018-03-22T18:36:10.013Z,101549.15
2018-03-22T18:38:36.457Z,101543.72
2018-03-22T18:41:03.929Z,101550.09
2018-03-22T18:43:31.306Z,101547.42
2018-03-22T18:46:00.742Z,101549.45
2018-03-22T18:48:29.616Z,101536.80
2018-03-22T18:50:57.429Z,101538.79
2018-03-22T18:53:25.394Z,101530.14
2018-03-22T18:55:52.866Z,101536.61
2018-03-22T18:58:19.733Z,101539.17
2018-03-22T19:00:47.001Z,101536.00
2018-03-22T19:03:13.434Z,101539.70
2018-03-22T19:05:40.312Z,101530.08
2018-03-22T19:08:08.499Z,101525.98
2018-03-22T19:10:34.958Z,101521.49
2018-03-22T19:13:01.717Z,101525.25
2018-03-22T19:15:28.498Z,101524.05
2018-03-22T19:17:56.162Z,101521.70
2018-03-22T19:20:23.113Z,101522.36
2018-03-22T19:22:50.466Z,101519.27
2018-03-22T19:25:16.921Z,101509.97
2018-03-22T19:27:44.569Z,101508.02
2018-03-22T19:30:12.226Z,101507.23
2018-03-22T19:32:38.668Z,101503.04
2018-03-22T19:35:05.072Z,101499.95
2018-03-22T19:37:32.275Z,101502.28
2018-03-22T19:39:58.677Z,101504.22
2018-03-22T19:42:25.410Z,101501.05
2018-03-22T19:44:52.272Z,101498.05
2018-03-22T19:47:20.081Z,101492.52
2018-03-22T19:49:46.508Z,101498.64
2018-03-22T19:52:13.197Z,101495.15
2018-03-22T19:54:39.767Z,101498.30
2018-03-22T19:57:07.094Z,101496.36
2018-03-22T19:59:33.532Z,101490.09
2018-03-22T20:02:01.372Z,101489.25
2018-03-22T20:04:28.314Z,101486.91
2018-03-22T20:06:55.058Z,101483.81
2018-03-22T20:09:21.534Z,101485.33
2018-03-22T20:11:49.091Z,101490.50
2018-03-22T20:14:16.274Z,101487.24
2018-03-22T20:16:42.791Z,101487.63
2018-03-22T20:19:10.550Z,101489.36
2018-03-22T20:21:38.349Z,101489.76
2018-03-22T20:24:04.974Z,101488.10
2018-03-22T20:26:32.602Z,101483.02
2018-03-22T20:28:59.215Z,101484.37
2018-03-22T20:31:26.189Z,101482.51
2018-03-22T20:33:52.889Z,101486.75
2018-03-22T20:36:19.686Z,101490.73
2018-03-22T20:38:46.125Z,101497.25
2018-03-22T20:41:13.511Z,101481.31
2018-03-22T20:43:39.966Z,101485.56
2018-03-22T20:46:07.582Z,101481.16
2018-03-22T20:48:34.460Z,101479.34
2018-03-22T20:51:01.522Z,101473.36
2018-03-22T20:53:29.489Z,101479.70
2018-03-22T20:55:56.858Z,101480.97
2018-03-22T20:58:23.793Z,101480.03
2018-03-22T21:00:50.237Z,101479.27
2018-03-22T21:03:18.084Z,101477.19
2018-03-22T21:05:44.611Z,101479.84
2018-03-22T21:08:11.897Z,101478.80
2018-03-22T21:10:38.378Z,101476.41
2018-03-22T21:13:05.325Z,101477.47
2018-03-22T21:15:31.898Z,101477.70
2018-03-22T21:17:58.705Z,101474.27
2018-03-22T21:20:25.887Z,101471.44
2018-03-22T21:22:52.748Z,101475.95
2018-03-22T21:25:19.793Z,101467.51
2018-03-22T21:27:46.232Z,101465.16
2018-03-22T21:30:12.916Z,101465.78
2018-03-22T21:32:40.024Z,101465.98
2018-03-22T21:35:06.509Z,101473.26
2018-03-22T21:37:32.992Z,101457.86
2018-03-22T21:39:59.560Z,101460.66
2018-03-22T21:42:26.637Z,101456.83
2018-03-22T21:44:53.057Z,101453.05
2018-03-22T21:47:30.872Z,101447.33
2018-03-22T21:49:57.819Z,101445.94
2018-03-22T21:52:42.698Z,101439.56
2018-03-22T21:55:09.145Z,101439.07
2018-03-22T21:57:35.703Z,101431.89
2018-03-22T22:00:03.136Z,101434.28
2018-03-22T22:02:29.837Z,101425.88
2018-03-22T22:04:56.353Z,101424.20
2018-03-22T22:07:23.442Z,101415.21
2018-03-22T22:09:49.893Z,101415.92
2018-03-22T22:12:16.508Z,101408.19
2018-03-22T22:14:43.809Z,101409.52
2018-03-22T22:17:10.719Z,101414.05
2018-03-22T22:19:37.149Z,101405.97
2018-03-22T22:22:03.721Z,101402.52
2018-03-22T22:24:30.305Z,101401.17
2018-03-22T22:26:57.052Z,101392.56
2018-03-22T22:29:24.768Z,101387.54
2018-03-22T22:31:51.771Z,101388.45
2018-03-22T22:34:19.316Z,101382.59
2018-03-22T22:36:45.768Z,101380.13
2018-03-22T22:39:13.834Z,101383.98
2018-03-22T22:41:40.261Z,101371.66
2018-03-22T22:44:06.933Z,101368.33
2018-03-22T22:46:34.370Z,101370.81
2018-03-22T22:49:00.783Z,101363.73
2018-03-22T22:51:27.809Z,101364.02
2018-03-22T22:53:55.887Z,101358.98
2018-03-22T22:56:23.353Z,101353.08
2018-03-22T22:58:49.778Z,101348.58
2018-03-22T23:01:16.276Z,101346.42
2018-03-22T23:03:43.023Z,101345.87
2018-03-22T23:06:09.709Z,101341.30
2018-03-22T23:08:36.920Z,101336.27
2018-03-22T23:11:03.580Z,101335.02
2018-03-22T23:13:30.719Z,101332.31
2018-03-22T23:15:57.163Z,101324.02
2018-03-22T23:18:24.011Z,101324.45
2018-03-22T23:20:51.062Z,101322.16
2018-03-22T23:23:17.477Z,101318.06
2018-03-22T23:25:44.294Z,101323.75
2018-03-22T23:28:11.422Z,101310.40
2018-03-22T23:30:38.602Z,101312.52
2018-03-22T23:33:05.847Z,101303.98
2018-03-22T23:35:33.579Z,101300.50
2018-03-22T23:38:01.268Z,101300.63
2018-03-22T23:40:29.169Z,101295.20
2018-03-22T23:42:55.591Z,101292.42
2018-03-22T23:45:22.119Z,101291.16
2018-03-22T23:47:49.269Z,101286.70
2018-03-22T23:50:15.687Z,101286.50
2018-03-22T23:52:43.000Z,101276.99
2018-03-22T23:55:09.989Z,101283.41
2018-03-22T23:57:36.717Z,101278.49
